Kandilousa — SYIF — position and weather

sailwx.info

Track history (hours):
 
Tides and Currents Weather Stations Pressure Air Temp Water Temp Dewpoint Dewpoint Depression Visibility Wind Speed Wind Dir Waves Ship Positions

Kandilousa

Last reported at 2014-Nov-21 04:10 UTC. Time now 2014-Nov-26 04:14 UTC.
Position N 29°53' W 089°58'.

Length 183 m; draft 8 m.

Type: Tanker. MMSI: 239354000.

Date/timePositionNaut miles runAvg speedWind from/ knotsBaromVisibWave heightAir tempDewpointWater temp
2014-Nov-21 04:10N 29°53' W 089°58'3 3.8
2014-Nov-21 03:30N 29°55' W 089°57'8 8.3
2014-Nov-21 02:33N 29°55' W 090°06'0 0.0
2014-Nov-20 13:18N 29°54' W 090°06'0 0.0
2014-Nov-19 10:18N 29°54' W 090°06'0 0.0
2014-Nov-18 12:25N 29°55' W 090°06'  
2014-Nov-14 22:33N 25°32' W 079°59'1110.8
2014-Nov-14 21:33N 25°43' W 079°56'9 9.3
2014-Nov-14 20:33N 25°51' W 079°53'0 0.1
2014-Nov-14 19:33N 25°51' W 079°53'2 1.7
2014-Nov-14 18:33N 25°50' W 079°54'2 2.0
2014-Nov-14 17:22N 25°47' W 079°55'5 5.9
2014-Nov-14 16:33N 25°48' W 079°60'6 6.5
2014-Nov-14 15:33N 25°46' W 080°06'2 0.1
2014-Nov-13 19:33N 25°46' W 080°08'6 6.0
2014-Nov-13 18:33N 25°49' W 080°03'1111.3
2014-Nov-13 17:33N 26°01' W 080°03'7 6.5
2014-Nov-13 16:33N 26°06' W 080°07'0 0.0
2014-Nov-13 15:33N 26°06' W 080°07'0 0.0
2014-Nov-13 14:33N 26°06' W 080°07'0 0.0
2014-Nov-13 13:33N 26°06' W 080°07'0 0.0
2014-Nov-13 12:33N 26°06' W 080°07'0 0.0
2014-Nov-13 11:33N 26°06' W 080°07'0 0.0
2014-Nov-13 10:24N 26°06' W 080°07'0 0.0
2014-Nov-13 09:27N 26°06' W 080°07'0 0.0
2014-Nov-13 08:27N 26°06' W 080°07'0 0.0
2014-Nov-13 07:12N 26°06' W 080°07'0 0.0
2014-Nov-13 06:30N 26°06' W 080°07'0 0.0
2014-Nov-13 05:30N 26°06' W 080°07'0 0.0
2014-Nov-13 04:30N 26°06' W 080°07'0 0.0
2014-Nov-13 03:30N 26°06' W 080°07'0 0.0
2014-Nov-13 02:33N 26°06' W 080°07'0 0.0
2014-Nov-13 01:33N 26°06' W 080°07'0 0.0
2014-Nov-13 00:33N 26°06' W 080°07'0 0.0
2014-Nov-12 23:33N 26°06' W 080°07'0 0.0
2014-Nov-12 22:33N 26°06' W 080°07'0 0.0
2014-Nov-12 21:33N 26°06' W 080°07'0 0.0
2014-Nov-12 20:33N 26°06' W 080°07'0 0.0
2014-Nov-12 19:24N 26°06' W 080°07'0 0.0
2014-Nov-12 18:27N 26°06' W 080°07'0 0.0
2014-Nov-12 17:27N 26°06' W 080°07'50 2.6
2014-Nov-11 22:33N 26°50' W 079°43'  
Track history (hours):
 
Tides and Currents Weather Stations Pressure Air Temp Water Temp Dewpoint Dewpoint Depression Visibility Wind Speed Wind Dir Waves Ship Positions

Kandilousa

Last reported at 2014-Nov-21 04:10 UTC. Time now 2014-Nov-26 04:14 UTC.
Position N 29°53' W 089°58'.

Length 183 m; draft 8 m.

Type: Tanker. MMSI: 239354000.

Date/timePositionNaut miles runAvg speedWind from/ knotsBaromVisibWave heightAir tempDewpointWater temp
2014-Nov-21 04:10N 29°53' W 089°58'3 3.8
2014-Nov-21 03:30N 29°55' W 089°57'8 8.3
2014-Nov-21 02:33N 29°55' W 090°06'0 0.0
2014-Nov-20 13:18N 29°54' W 090°06'0 0.0
2014-Nov-19 10:18N 29°54' W 090°06'0 0.0
2014-Nov-18 12:25N 29°55' W 090°06'  
2014-Nov-14 22:33N 25°32' W 079°59'1110.8
2014-Nov-14 21:33N 25°43' W 079°56'9 9.3
2014-Nov-14 20:33N 25°51' W 079°53'0 0.1
2014-Nov-14 19:33N 25°51' W 079°53'2 1.7
2014-Nov-14 18:33N 25°50' W 079°54'2 2.0
2014-Nov-14 17:22N 25°47' W 079°55'5 5.9
2014-Nov-14 16:33N 25°48' W 079°60'6 6.5
2014-Nov-14 15:33N 25°46' W 080°06'2 0.1
2014-Nov-13 19:33N 25°46' W 080°08'6 6.0
2014-Nov-13 18:33N 25°49' W 080°03'1111.3
2014-Nov-13 17:33N 26°01' W 080°03'7 6.5
2014-Nov-13 16:33N 26°06' W 080°07'0 0.0
2014-Nov-13 15:33N 26°06' W 080°07'0 0.0
2014-Nov-13 14:33N 26°06' W 080°07'0 0.0
2014-Nov-13 13:33N 26°06' W 080°07'0 0.0
2014-Nov-13 12:33N 26°06' W 080°07'0 0.0
2014-Nov-13 11:33N 26°06' W 080°07'0 0.0
2014-Nov-13 10:24N 26°06' W 080°07'0 0.0
2014-Nov-13 09:27N 26°06' W 080°07'0 0.0
2014-Nov-13 08:27N 26°06' W 080°07'0 0.0
2014-Nov-13 07:12N 26°06' W 080°07'0 0.0
2014-Nov-13 06:30N 26°06' W 080°07'0 0.0
2014-Nov-13 05:30N 26°06' W 080°07'0 0.0
2014-Nov-13 04:30N 26°06' W 080°07'0 0.0
2014-Nov-13 03:30N 26°06' W 080°07'0 0.0
2014-Nov-13 02:33N 26°06' W 080°07'0 0.0
2014-Nov-13 01:33N 26°06' W 080°07'0 0.0
2014-Nov-13 00:33N 26°06' W 080°07'0 0.0
2014-Nov-12 23:33N 26°06' W 080°07'0 0.0
2014-Nov-12 22:33N 26°06' W 080°07'0 0.0
2014-Nov-12 21:33N 26°06' W 080°07'0 0.0
2014-Nov-12 20:33N 26°06' W 080°07'0 0.0
2014-Nov-12 19:24N 26°06' W 080°07'0 0.0
2014-Nov-12 18:27N 26°06' W 080°07'0 0.0
2014-Nov-12 17:27N 26°06' W 080°07'50 2.6
2014-Nov-11 22:33N 26°50' W 079°43'  

Dump ship's entire track history